Pembroke, Massachusetts
Current Conditions -  °F | °C
As of 10:52 AM on Friday 21 Nov 2014 (Local Time) from KPYM Reporting Station
Clear Clear  
Wind Chill: 22°   Ceiling: Unl
Heat Index: 33°   Visibility: 10mi
Dew Point: 10°   Wind: 18mph
Humidity: 38%   Direction: 290°WNW
Pressure: 30.1"   Gusts: 25mph
Location:  42.07°N, 70.81°W
Report Text: KPYM 211552Z AUTO 29016G22KT 10SM CLR 01/M12 A3010 RMK AO2 PK WND 29028/1541 SLP195 T00061122
Loading
Personal Weather Stations






























Interactive Weather Map New forecast layout! Learn more

10-Day Weather Forecast

Advertisements
Track Severe Weather on mobile